Time;durP1;ratioP1;P1;durP2;ratioP2;P2;SDS_P1;SDS_P2;PMS_P1;PMS_P2;Temp;Humidity;BMP_temperature;BMP_pressure;BME280_temperature;BME280_humidity;BME280_pressure;Samples;Min_cycle;Max_cycle;Signal;HPM_P1;HPM_P2
2023/08/19 00:00:13;;;;;;;17.52;13.50;;;;;;;;;;5056045;28;20071;-72
2023/08/19 00:02:38;;;;;;;17.33;13.90;;;;;;;;;;5055730;28;20025;-72
2023/08/19 00:05:04;;;;;;;19.63;14.20;;;;;;;;;;5055296;28;20416;-72
2023/08/19 00:07:29;;;;;;;18.05;14.32;;;;;;;;;;5055522;28;20028;-72
2023/08/19 00:09:55;;;;;;;20.77;14.70;;;;;;;;;;5056714;28;20032;-72
2023/08/19 00:12:21;;;;;;;18.42;14.55;;;;;;;;;;5059408;28;20012;-72
2023/08/19 00:14:47;;;;;;;17.67;14.35;;;;;;;;;;5071114;28;20096;-72
2023/08/19 00:17:13;;;;;;;19.40;15.07;;;;;;;;;;5058753;28;20025;-71
2023/08/19 00:19:38;;;;;;;18.30;14.85;;;;;;;;;;5075718;28;20031;-71
2023/08/19 00:22:03;;;;;;;20.10;15.25;;;;;;;;;;5075460;28;20024;-72
2023/08/19 00:24:29;;;;;;;18.90;14.65;;;;;;;;;;5075209;28;20028;-72
2023/08/19 00:26:54;;;;;;;20.50;15.35;;;;;;;;;;5056190;28;20039;-72
2023/08/19 00:29:19;;;;;;;20.67;16.02;;;;;;;;;;5056551;28;20136;-72
2023/08/19 00:31:44;;;;;;;18.75;14.80;;;;;;;;;;5059538;28;20021;-72
2023/08/19 00:34:10;;;;;;;18.50;14.85;;;;;;;;;;5053214;28;20112;-72
2023/08/19 00:36:35;;;;;;;19.75;15.13;;;;;;;;;;5052742;28;20032;-71
2023/08/19 00:39:00;;;;;;;19.83;15.48;;;;;;;;;;5053508;28;20501;-71
2023/08/19 00:41:25;;;;;;;21.92;16.20;;;;;;;;;;5053917;28;20086;-72
2023/08/19 00:43:51;;;;;;;19.60;16.00;;;;;;;;;;5054225;28;20044;-68
2023/08/19 00:46:16;;;;;;;23.08;17.85;;;;;;;;;;5053545;28;20021;-67
2023/08/19 00:48:41;;;;;;;21.30;16.73;;;;;;;;;;5054337;28;20037;-67
2023/08/19 00:51:07;;;;;;;22.92;17.70;;;;;;;;;;5052959;28;20481;-67
2023/08/19 00:53:33;;;;;;;21.10;16.90;;;;;;;;;;5052962;28;20021;-67
2023/08/19 00:55:58;;;;;;;22.70;17.20;;;;;;;;;;5052917;28;20025;-67
2023/08/19 00:58:23;;;;;;;19.38;16.60;;;;;;;;;;5053477;28;20025;-67
2023/08/19 01:03:51;;;;;;;24.40;17.13;;;;;;;;;;5047155;23;20068;-69
2023/08/19 01:06:19;;;;;;;23.05;16.63;;;;;;;;;;5033735;28;20049;-70
2023/08/19 01:08:55;;;;;;;24.48;16.75;;;;;;;;;;5034121;28;20142;-69
2023/08/19 01:11:36;;;;;;;22.40;17.25;;;;;;;;;;5033642;28;20024;-69
2023/08/19 01:14:07;;;;;;;21.43;17.03;;;;;;;;;;5030499;28;20022;-69
2023/08/19 01:16:33;;;;;;;23.75;17.13;;;;;;;;;;5032890;28;20413;-69
2023/08/19 01:18:59;;;;;;;21.92;17.75;;;;;;;;;;5033035;28;20108;-69
2023/08/19 01:21:25;;;;;;;23.15;17.30;;;;;;;;;;5032427;28;20230;-69
2023/08/19 01:23:51;;;;;;;21.00;17.20;;;;;;;;;;5034416;28;20119;-69
2023/08/19 01:26:17;;;;;;;24.08;16.80;;;;;;;;;;5034474;28;20030;-69
2023/08/19 01:28:42;;;;;;;21.00;16.90;;;;;;;;;;5022160;28;20101;-69
2023/08/19 01:31:08;;;;;;;23.40;17.15;;;;;;;;;;5014393;28;20014;-69
2023/08/19 01:33:33;;;;;;;23.38;17.80;;;;;;;;;;5022465;28;20021;-69
2023/08/19 01:36:28;;;;;;;25.15;19.13;;;;;;;;;;5032635;28;20481;-69
2023/08/19 01:38:59;;;;;;;27.33;19.63;;;;;;;;;;4972060;28;20038;-69
2023/08/19 01:41:26;;;;;;;24.65;18.50;;;;;;;;;;4972033;28;20030;-69
2023/08/19 01:43:52;;;;;;;24.50;19.23;;;;;;;;;;4972843;28;20031;-69
2023/08/19 01:46:17;;;;;;;25.60;18.67;;;;;;;;;;4973042;28;20085;-69
2023/08/19 01:48:42;;;;;;;24.63;17.70;;;;;;;;;;4972924;28;20562;-69
2023/08/19 01:51:08;;;;;;;24.88;18.60;;;;;;;;;;4972650;28;20383;-68
2023/08/19 01:53:33;;;;;;;23.92;17.90;;;;;;;;;;4972940;28;20018;-69
2023/08/19 01:55:58;;;;;;;24.02;18.77;;;;;;;;;;4971741;28;20035;-69
2023/08/19 01:58:23;;;;;;;25.42;18.60;;;;;;;;;;4972214;28;20027;-69
2023/08/19 02:00:48;;;;;;;25.88;19.67;;;;;;;;;;4972082;28;20031;-69
2023/08/19 02:03:14;;;;;;;23.45;18.73;;;;;;;;;;4982395;28;20057;-68
2023/08/19 02:05:39;;;;;;;26.42;18.80;;;;;;;;;;5006682;28;20056;-68
2023/08/19 02:08:04;;;;;;;24.95;19.30;;;;;;;;;;4989449;28;20077;-69
2023/08/19 02:10:31;;;;;;;32.20;19.20;;;;;;;;;;4978478;28;20027;-68
2023/08/19 02:12:56;;;;;;;24.15;18.63;;;;;;;;;;4985729;28;20074;-68
2023/08/19 02:15:21;;;;;;;23.73;19.30;;;;;;;;;;5038226;28;20028;-69
2023/08/19 02:17:46;;;;;;;26.70;18.90;;;;;;;;;;5070412;28;20025;-69
2023/08/19 02:20:12;;;;;;;27.83;19.77;;;;;;;;;;5052021;28;20103;-68
2023/08/19 02:22:38;;;;;;;23.88;18.85;;;;;;;;;;5052707;28;20145;-68
2023/08/19 02:25:03;;;;;;;24.42;18.52;;;;;;;;;;5063111;28;20060;-68
2023/08/19 02:27:31;;;;;;;25.42;19.50;;;;;;;;;;5057822;28;20072;-68
2023/08/19 02:29:56;;;;;;;27.27;20.38;;;;;;;;;;5053256;28;20461;-68
2023/08/19 02:32:21;;;;;;;25.98;19.55;;;;;;;;;;5055479;28;20025;-68
2023/08/19 02:34:46;;;;;;;26.58;19.73;;;;;;;;;;5058182;28;20029;-68
2023/08/19 02:37:13;;;;;;;24.67;19.20;;;;;;;;;;5056855;28;20029;-68
2023/08/19 02:39:39;;;;;;;26.88;19.42;;;;;;;;;;5072022;28;20460;-68
2023/08/19 02:42:04;;;;;;;29.00;20.80;;;;;;;;;;5068281;28;20036;-68
2023/08/19 02:44:29;;;;;;;25.60;19.33;;;;;;;;;;5054205;28;20030;-68
2023/08/19 02:46:54;;;;;;;26.40;20.13;;;;;;;;;;5061168;28;20029;-68
2023/08/19 02:49:19;;;;;;;26.98;20.27;;;;;;;;;;5051948;28;20052;-69
2023/08/19 02:51:45;;;;;;;28.52;20.95;;;;;;;;;;5056639;28;20028;-69
2023/08/19 02:54:11;;;;;;;26.65;20.90;;;;;;;;;;5048740;28;20028;-68
2023/08/19 02:56:37;;;;;;;28.27;21.00;;;;;;;;;;5060027;28;20089;-68
2023/08/19 02:59:02;;;;;;;28.08;21.40;;;;;;;;;;5073406;28;20032;-68
2023/08/19 03:01:27;;;;;;;28.17;21.00;;;;;;;;;;5062092;28;20036;-68
2023/08/19 03:03:52;;;;;;;28.75;22.00;;;;;;;;;;5074481;28;20044;-69
2023/08/19 03:06:18;;;;;;;31.92;23.02;;;;;;;;;;5065601;28;20115;-68
2023/08/19 03:08:43;;;;;;;30.73;23.05;;;;;;;;;;5056250;28;20025;-69
2023/08/19 03:11:08;;;;;;;30.48;23.55;;;;;;;;;;5056917;28;20017;-68
2023/08/19 03:13:35;;;;;;;30.52;23.90;;;;;;;;;;5066627;28;20013;-68
2023/08/19 03:16:00;;;;;;;31.88;24.65;;;;;;;;;;5058408;28;20028;-69
2023/08/19 03:18:26;;;;;;;33.05;25.08;;;;;;;;;;5070253;28;20031;-68
2023/08/19 03:20:55;;;;;;;34.60;25.55;;;;;;;;;;5057073;28;20021;-68
2023/08/19 03:23:20;;;;;;;36.20;25.60;;;;;;;;;;5070160;28;20028;-68
2023/08/19 03:25:48;;;;;;;34.05;26.30;;;;;;;;;;5056398;28;20108;-69
2023/08/19 03:28:13;;;;;;;34.90;25.60;;;;;;;;;;5067383;28;20354;-68
2023/08/19 03:30:38;;;;;;;34.50;25.48;;;;;;;;;;5059221;28;20108;-68
2023/08/19 03:33:04;;;;;;;34.03;25.40;;;;;;;;;;5060752;28;20048;-68
2023/08/19 03:35:29;;;;;;;36.22;26.73;;;;;;;;;;5066177;28;20032;-68
2023/08/19 03:37:54;;;;;;;37.83;26.70;;;;;;;;;;5060014;28;20415;-69
2023/08/19 03:40:19;;;;;;;36.33;25.58;;;;;;;;;;5055917;28;20413;-68
2023/08/19 03:42:45;;;;;;;36.60;26.40;;;;;;;;;;5058544;28;20036;-68
2023/08/19 03:45:10;;;;;;;32.90;25.45;;;;;;;;;;5069931;28;20028;-68
2023/08/19 03:47:35;;;;;;;36.35;25.95;;;;;;;;;;5062717;28;20028;-68
2023/08/19 03:50:00;;;;;;;37.13;25.63;;;;;;;;;;5054969;28;20024;-69
2023/08/19 03:52:26;;;;;;;34.75;26.23;;;;;;;;;;5053791;28;20029;-68
2023/08/19 03:54:51;;;;;;;38.30;27.15;;;;;;;;;;5053297;28;20029;-69
2023/08/19 03:57:16;;;;;;;36.33;27.33;;;;;;;;;;5056820;28;20058;-68
2023/08/19 03:59:41;;;;;;;37.80;27.55;;;;;;;;;;5062409;28;20081;-69
2023/08/19 04:02:07;;;;;;;39.60;27.60;;;;;;;;;;5057854;28;20037;-68
2023/08/19 04:04:36;;;;;;;37.60;26.75;;;;;;;;;;5055039;28;20029;-68
2023/08/19 04:07:01;;;;;;;35.70;25.48;;;;;;;;;;5054976;28;20056;-68
2023/08/19 04:09:26;;;;;;;32.63;24.42;;;;;;;;;;5036871;28;20469;-68
2023/08/19 04:11:52;;;;;;;35.55;24.00;;;;;;;;;;5047372;28;20405;-68
2023/08/19 04:14:17;;;;;;;31.42;22.95;;;;;;;;;;5058078;28;20484;-68
2023/08/19 04:16:42;;;;;;;36.67;23.52;;;;;;;;;;5055734;28;20036;-68
2023/08/19 04:19:07;;;;;;;29.38;21.60;;;;;;;;;;5066211;28;20082;-68
2023/08/19 04:21:33;;;;;;;33.72;23.17;;;;;;;;;;5056535;28;20016;-68
2023/08/19 04:23:58;;;;;;;30.70;22.38;;;;;;;;;;5064206;28;20027;-68
2023/08/19 04:26:23;;;;;;;28.60;21.10;;;;;;;;;;5063735;28;20020;-68
2023/08/19 04:28:48;;;;;;;30.95;21.90;;;;;;;;;;5054166;28;20538;-68
2023/08/19 04:31:14;;;;;;;33.15;22.58;;;;;;;;;;5054529;28;20028;-68
2023/08/19 04:33:39;;;;;;;29.30;20.88;;;;;;;;;;5051556;28;20017;-68
2023/08/19 04:36:04;;;;;;;29.10;21.67;;;;;;;;;;5072242;28;20031;-64
2023/08/19 04:38:30;;;;;;;31.13;20.35;;;;;;;;;;5068266;28;20020;-64
2023/08/19 04:40:56;;;;;;;30.55;22.48;;;;;;;;;;5065220;28;20048;-65
2023/08/19 04:43:21;;;;;;;28.20;20.77;;;;;;;;;;5054329;28;20024;-67
2023/08/19 04:45:47;;;;;;;28.33;21.35;;;;;;;;;;5065957;28;20032;-64
2023/08/19 04:48:13;;;;;;;32.03;21.13;;;;;;;;;;5063858;28;20013;-64
2023/08/19 04:50:38;;;;;;;30.88;21.38;;;;;;;;;;5050566;28;20501;-65
2023/08/19 04:53:03;;;;;;;28.83;20.83;;;;;;;;;;5054053;28;20468;-64
2023/08/19 04:55:29;;;;;;;33.45;21.77;;;;;;;;;;5067906;28;20357;-65
2023/08/19 04:57:54;;;;;;;26.10;19.35;;;;;;;;;;5060917;28;20500;-64
2023/08/19 05:00:19;;;;;;;25.38;18.70;;;;;;;;;;5069263;28;20021;-65
2023/08/19 05:02:45;;;;;;;26.60;19.33;;;;;;;;;;5060108;28;20075;-64
2023/08/19 05:05:10;;;;;;;26.33;18.80;;;;;;;;;;5052432;28;20025;-64
2023/08/19 05:07:35;;;;;;;23.27;16.98;;;;;;;;;;5044670;28;20029;-64
2023/08/19 05:10:00;;;;;;;23.65;17.17;;;;;;;;;;5052025;28;20014;-64
2023/08/19 05:12:26;;;;;;;24.13;17.25;;;;;;;;;;5039868;28;20029;-63
2023/08/19 05:14:51;;;;;;;22.13;16.67;;;;;;;;;;5022364;28;20074;-66
2023/08/19 05:17:17;;;;;;;23.08;16.63;;;;;;;;;;5037012;28;20088;-64
2023/08/19 05:19:42;;;;;;;21.80;16.70;;;;;;;;;;5047358;28;20032;-64
2023/08/19 05:22:07;;;;;;;23.70;16.58;;;;;;;;;;5052676;28;20041;-63
2023/08/19 05:24:32;;;;;;;25.27;16.67;;;;;;;;;;5036489;28;20032;-64
2023/08/19 05:26:59;;;;;;;22.92;16.92;;;;;;;;;;5043112;28;20104;-64
2023/08/19 05:29:24;;;;;;;22.98;15.93;;;;;;;;;;5053131;28;20099;-65
2023/08/19 05:31:49;;;;;;;21.30;16.30;;;;;;;;;;5047638;28;20124;-64
2023/08/19 05:34:14;;;;;;;22.15;15.55;;;;;;;;;;5042350;28;20091;-63
2023/08/19 05:36:40;;;;;;;23.35;16.45;;;;;;;;;;5050441;28;20365;-64
2023/08/19 05:39:05;;;;;;;23.35;16.65;;;;;;;;;;5051937;28;20408;-63
2023/08/19 05:41:30;;;;;;;21.15;15.60;;;;;;;;;;5048778;28;20056;-63
2023/08/19 05:43:55;;;;;;;20.60;15.32;;;;;;;;;;5034038;28;20030;-64
2023/08/19 05:46:21;;;;;;;20.48;14.80;;;;;;;;;;5034127;28;20025;-67
2023/08/19 05:48:46;;;;;;;18.27;14.27;;;;;;;;;;5035286;28;20013;-67
2023/08/19 05:51:11;;;;;;;20.17;14.43;;;;;;;;;;5053682;28;20108;-67
2023/08/19 05:53:36;;;;;;;21.52;14.65;;;;;;;;;;5041345;28;20420;-67
2023/08/19 05:56:02;;;;;;;20.90;14.50;;;;;;;;;;5033657;28;20428;-64
2023/08/19 05:58:27;;;;;;;17.45;13.63;;;;;;;;;;5032705;28;20029;-63
2023/08/19 06:00:56;;;;;;;20.30;14.68;;;;;;;;;;5036661;28;20021;-64
2023/08/19 06:03:21;;;;;;;23.33;14.20;;;;;;;;;;5062541;28;20397;-64
2023/08/19 06:05:47;;;;;;;21.83;14.90;;;;;;;;;;5058779;28;20037;-68
2023/08/19 06:08:12;;;;;;;21.95;14.98;;;;;;;;;;5053657;28;20473;-67
2023/08/19 06:10:43;;;;;;;19.35;13.95;;;;;;;;;;5059262;28;20028;-67
2023/08/19 06:13:08;;;;;;;19.40;14.60;;;;;;;;;;5052739;28;20469;-67
2023/08/19 06:15:34;;;;;;;18.10;13.07;;;;;;;;;;5052299;28;20025;-68
2023/08/19 06:17:59;;;;;;;16.77;12.23;;;;;;;;;;5062330;28;20028;-66
2023/08/19 06:20:24;;;;;;;17.15;13.15;;;;;;;;;;5059768;28;20024;-67
2023/08/19 06:22:50;;;;;;;17.10;12.65;;;;;;;;;;5051772;28;20064;-67
2023/08/19 06:25:15;;;;;;;16.77;12.57;;;;;;;;;;5058205;28;20047;-68
2023/08/19 06:27:40;;;;;;;16.58;11.57;;;;;;;;;;5059762;28;20064;-67
2023/08/19 06:30:06;;;;;;;17.88;11.75;;;;;;;;;;5053192;28;20096;-67
2023/08/19 06:32:31;;;;;;;17.85;11.98;;;;;;;;;;5049894;28;20128;-68
2023/08/19 06:34:57;;;;;;;15.50;11.32;;;;;;;;;;5052408;28;20017;-68
2023/08/19 06:37:27;;;;;;;16.95;11.57;;;;;;;;;;5053348;28;20029;-68
2023/08/19 06:39:54;;;;;;;17.13;11.75;;;;;;;;;;5052971;28;20025;-67
2023/08/19 06:42:20;;;;;;;16.42;10.95;;;;;;;;;;5045914;28;20493;-68
2023/08/19 06:44:46;;;;;;;14.57;10.10;;;;;;;;;;5032962;28;20060;-67
2023/08/19 06:47:13;;;;;;;14.00;10.48;;;;;;;;;;5046095;28;20124;-67
2023/08/19 06:49:38;;;;;;;17.38;10.38;;;;;;;;;;5050090;28;20473;-67
2023/08/19 06:52:04;;;;;;;16.05;10.88;;;;;;;;;;5052785;28;20029;-68
2023/08/19 06:54:29;;;;;;;15.73;11.52;;;;;;;;;;5052852;28;20025;-69
2023/08/19 06:57:06;;;;;;;14.63;11.18;;;;;;;;;;5052812;28;20441;-68
2023/08/19 06:59:35;;;;;;;17.25;12.05;;;;;;;;;;5052996;28;20419;-69
2023/08/19 07:02:01;;;;;;;18.42;12.52;;;;;;;;;;5052026;28;20021;-68
2023/08/19 07:04:27;;;;;;;17.73;11.82;;;;;;;;;;5033158;28;20053;-68
2023/08/19 07:06:54;;;;;;;16.40;12.00;;;;;;;;;;5033039;28;20469;-68
2023/08/19 07:09:21;;;;;;;16.00;11.43;;;;;;;;;;5032615;28;20477;-68
2023/08/19 07:11:46;;;;;;;14.27;9.80;;;;;;;;;;5032364;28;20444;-66
2023/08/19 07:14:11;;;;;;;13.50;9.20;;;;;;;;;;5034675;28;20096;-67
2023/08/19 07:16:37;;;;;;;14.50;9.68;;;;;;;;;;5033235;28;20133;-68
2023/08/19 07:19:04;;;;;;;14.55;9.88;;;;;;;;;;5029713;28;20022;-67
2023/08/19 07:21:31;;;;;;;11.57;8.55;;;;;;;;;;5032370;28;20408;-66
2023/08/19 07:23:58;;;;;;;13.40;8.40;;;;;;;;;;5028267;28;20096;-67
2023/08/19 07:26:24;;;;;;;10.75;7.65;;;;;;;;;;5023956;28;20112;-66
2023/08/19 07:28:50;;;;;;;11.38;8.05;;;;;;;;;;5029496;28;20471;-66
2023/08/19 07:31:16;;;;;;;11.90;8.38;;;;;;;;;;5032194;28;20034;-67
2023/08/19 07:33:42;;;;;;;12.85;8.43;;;;;;;;;;5032842;28;20405;-68
2023/08/19 07:36:07;;;;;;;13.23;9.05;;;;;;;;;;5032460;28;20025;-68
2023/08/19 07:38:32;;;;;;;15.88;9.48;;;;;;;;;;5032778;28;20025;-68
2023/08/19 07:40:58;;;;;;;14.07;9.88;;;;;;;;;;5032699;28;20022;-68
2023/08/19 07:43:23;;;;;;;13.07;9.13;;;;;;;;;;5032459;28;20378;-68
2023/08/19 07:45:48;;;;;;;14.15;9.18;;;;;;;;;;5031486;28;20366;-68
2023/08/19 07:48:13;;;;;;;15.70;9.15;;;;;;;;;;5040924;28;20021;-68
2023/08/19 07:50:38;;;;;;;15.23;9.88;;;;;;;;;;5056016;28;20024;-68
2023/08/19 07:53:04;;;;;;;14.45;9.30;;;;;;;;;;5036217;28;20021;-68
2023/08/19 07:55:29;;;;;;;13.73;9.32;;;;;;;;;;5035895;28;20017;-68
2023/08/19 07:57:54;;;;;;;15.38;10.48;;;;;;;;;;5036267;28;20101;-68
2023/08/19 08:00:21;;;;;;;13.50;9.63;;;;;;;;;;5035841;28;20014;-68
2023/08/19 08:02:46;;;;;;;15.30;9.48;;;;;;;;;;5040900;28;20497;-68
2023/08/19 08:05:11;;;;;;;11.90;9.25;;;;;;;;;;5054913;28;20052;-68
2023/08/19 08:07:37;;;;;;;14.48;9.77;;;;;;;;;;5055724;28;20548;-68
2023/08/19 08:10:05;;;;;;;13.73;9.45;;;;;;;;;;5055673;28;20369;-69
2023/08/19 08:12:31;;;;;;;12.18;9.45;;;;;;;;;;5053757;28;20024;-69
2023/08/19 08:14:59;;;;;;;13.20;9.18;;;;;;;;;;5054808;28;20017;-67
2023/08/19 08:17:24;;;;;;;12.65;8.63;;;;;;;;;;5054955;28;20013;-66
2023/08/19 08:19:49;;;;;;;11.93;8.00;;;;;;;;;;5054987;28;20377;-67
2023/08/19 08:22:15;;;;;;;12.00;8.00;;;;;;;;;;5055251;28;20025;-66
2023/08/19 08:24:41;;;;;;;11.20;7.70;;;;;;;;;;5055678;28;20024;-67
2023/08/19 08:27:06;;;;;;;10.70;7.63;;;;;;;;;;5055585;28;20033;-68
2023/08/19 08:29:32;;;;;;;10.93;6.82;;;;;;;;;;5055632;28;20366;-68
2023/08/19 08:31:57;;;;;;;10.95;7.53;;;;;;;;;;5055611;28;20017;-67
2023/08/19 08:34:22;;;;;;;10.48;7.55;;;;;;;;;;5055532;28;20013;-68
2023/08/19 08:36:47;;;;;;;11.13;7.18;;;;;;;;;;5055087;28;20035;-67
2023/08/19 08:39:14;;;;;;;11.70;7.50;;;;;;;;;;5052488;28;20025;-68
2023/08/19 08:41:42;;;;;;;13.57;6.88;;;;;;;;;;5054915;28;20036;-67
2023/08/19 08:44:08;;;;;;;10.57;7.10;;;;;;;;;;5055005;28;20028;-67
2023/08/19 08:46:34;;;;;;;10.40;6.85;;;;;;;;;;5055181;28;20033;-67
2023/08/19 08:49:00;;;;;;;10.18;6.40;;;;;;;;;;5054321;28;20021;-67
2023/08/19 08:51:26;;;;;;;8.90;6.78;;;;;;;;;;5036159;28;20049;-68
2023/08/19 08:53:52;;;;;;;9.65;6.13;;;;;;;;;;5049915;28;20428;-67
2023/08/19 08:56:18;;;;;;;10.13;6.43;;;;;;;;;;5052186;28;20104;-67
2023/08/19 08:58:43;;;;;;;10.35;6.57;;;;;;;;;;5055047;28;20025;-66
2023/08/19 09:01:09;;;;;;;13.90;6.60;;;;;;;;;;5061422;28;20200;-67
2023/08/19 09:03:36;;;;;;;8.32;6.07;;;;;;;;;;5054034;28;20120;-67
2023/08/19 09:06:06;;;;;;;9.95;6.07;;;;;;;;;;5054866;28;20107;-67
2023/08/19 09:08:36;;;;;;;9.15;6.20;;;;;;;;;;5054358;28;20021;-67
2023/08/19 09:11:04;;;;;;;7.93;5.80;;;;;;;;;;5054835;28;20522;-68
2023/08/19 09:13:30;;;;;;;7.95;6.03;;;;;;;;;;5054639;28;20255;-68
2023/08/19 09:15:55;;;;;;;9.45;6.22;;;;;;;;;;5052509;28;20021;-68
2023/08/19 09:18:21;;;;;;;10.13;6.85;;;;;;;;;;5048285;28;20029;-68
2023/08/19 09:20:46;;;;;;;8.30;6.18;;;;;;;;;;5049634;28;20017;-68
2023/08/19 09:23:12;;;;;;;9.90;5.95;;;;;;;;;;5057374;28;20136;-67
2023/08/19 09:25:37;;;;;;;8.18;5.60;;;;;;;;;;5066261;28;20052;-68
2023/08/19 09:28:03;;;;;;;16.23;6.32;;;;;;;;;;5053144;28;20045;-68
2023/08/19 09:30:33;;;;;;;9.77;6.10;;;;;;;;;;5052978;28;20025;-68
2023/08/19 09:33:01;;;;;;;8.48;5.85;;;;;;;;;;5052916;28;20534;-68
2023/08/19 09:35:36;;;;;;;8.57;5.68;;;;;;;;;;5050304;28;20066;-67
2023/08/19 09:38:02;;;;;;;10.27;5.97;;;;;;;;;;5053000;28;20381;-64
2023/08/19 09:40:27;;;;;;;9.50;5.90;;;;;;;;;;5052895;28;20013;-64
2023/08/19 09:42:52;;;;;;;8.77;5.85;;;;;;;;;;5052847;28;20009;-64
2023/08/19 09:45:18;;;;;;;8.70;5.90;;;;;;;;;;5052939;28;20021;-63
2023/08/19 09:47:48;;;;;;;13.38;5.63;;;;;;;;;;5033855;28;20029;-64
2023/08/19 09:50:14;;;;;;;10.00;5.88;;;;;;;;;;5051594;28;20483;-65
2023/08/19 09:52:40;;;;;;;7.35;4.93;;;;;;;;;;5052382;28;20013;-63
2023/08/19 09:55:05;;;;;;;6.90;5.10;;;;;;;;;;5052076;28;20009;-64
2023/08/19 09:57:32;;;;;;;7.05;5.25;;;;;;;;;;5051233;28;20116;-64
2023/08/19 09:59:57;;;;;;;8.50;5.47;;;;;;;;;;5051762;28;20480;-64
2023/08/19 10:02:23;;;;;;;9.43;5.18;;;;;;;;;;5056817;28;20103;-63
2023/08/19 10:04:48;;;;;;;9.00;5.30;;;;;;;;;;5050013;28;20397;-63
2023/08/19 10:07:15;;;;;;;11.18;5.60;;;;;;;;;;5023494;28;20025;-64
2023/08/19 10:09:41;;;;;;;10.48;5.97;;;;;;;;;;5052776;28;20424;-64
2023/08/19 10:12:07;;;;;;;7.13;5.18;;;;;;;;;;5053667;28;20025;-65
2023/08/19 10:14:33;;;;;;;9.55;5.55;;;;;;;;;;5052134;28;20471;-65
2023/08/19 10:17:05;;;;;;;9.10;5.68;;;;;;;;;;5051743;28;20092;-65
2023/08/19 10:19:37;;;;;;;9.13;5.65;;;;;;;;;;5053551;28;20545;-65
2023/08/19 10:22:03;;;;;;;12.13;5.70;;;;;;;;;;5052989;28;20021;-66
2023/08/19 10:24:29;;;;;;;8.10;5.15;;;;;;;;;;5053476;28;20024;-64
2023/08/19 10:26:54;;;;;;;8.82;5.18;;;;;;;;;;5053380;28;20025;-64
2023/08/19 10:29:20;;;;;;;6.78;5.07;;;;;;;;;;5053404;28;20032;-65
2023/08/19 10:31:46;;;;;;;10.93;5.97;;;;;;;;;;5050687;28;20509;-65
2023/08/19 10:34:22;;;;;;;11.32;5.80;;;;;;;;;;5052915;28;20044;-66
2023/08/19 10:37:09;;;;;;;9.80;5.70;;;;;;;;;;5052086;28;20029;-65
2023/08/19 10:39:35;;;;;;;9.20;6.25;;;;;;;;;;5051984;28;20029;-66
2023/08/19 10:42:00;;;;;;;8.63;5.82;;;;;;;;;;5053241;28;20408;-65
2023/08/19 10:44:31;;;;;;;8.63;5.65;;;;;;;;;;5053211;28;20089;-64
2023/08/19 10:47:07;;;;;;;7.95;5.88;;;;;;;;;;5053246;28;20469;-65
2023/08/19 10:49:33;;;;;;;8.73;5.93;;;;;;;;;;5050028;28;20457;-67
2023/08/19 10:52:03;;;;;;;11.35;5.60;;;;;;;;;;5052738;28;20017;-65
2023/08/19 10:54:43;;;;;;;11.03;5.40;;;;;;;;;;5052794;28;20056;-66
2023/08/19 10:57:16;;;;;;;8.27;5.40;;;;;;;;;;5052853;28;20036;-64
2023/08/19 10:59:43;;;;;;;10.60;5.70;;;;;;;;;;5051333;28;20492;-65
2023/08/19 11:02:08;;;;;;;9.30;5.70;;;;;;;;;;5068632;28;20029;-64
2023/08/19 11:04:34;;;;;;;8.07;5.40;;;;;;;;;;5073047;28;20468;-64
2023/08/19 11:06:59;;;;;;;9.27;6.22;;;;;;;;;;5072559;28;20477;-64
2023/08/19 11:09:26;;;;;;;10.07;5.57;;;;;;;;;;5073036;28;20021;-65
2023/08/19 11:11:51;;;;;;;9.32;5.63;;;;;;;;;;5069287;28;20108;-65
2023/08/19 11:14:17;;;;;;;9.77;5.72;;;;;;;;;;5052596;28;20280;-65
2023/08/19 11:16:52;;;;;;;11.25;5.60;;;;;;;;;;5052889;28;20071;-66
2023/08/19 11:19:18;;;;;;;11.00;5.50;;;;;;;;;;5052513;28;20024;-66
2023/08/19 11:21:43;;;;;;;9.25;5.47;;;;;;;;;;5056500;28;20389;-64
2023/08/19 11:24:09;;;;;;;7.88;5.07;;;;;;;;;;5056379;28;20029;-66
2023/08/19 11:26:38;;;;;;;11.38;5.20;;;;;;;;;;5056416;28;20021;-64
2023/08/19 11:29:04;;;;;;;7.55;4.63;;;;;;;;;;5056621;28;20017;-65
2023/08/19 11:31:29;;;;;;;7.93;4.63;;;;;;;;;;5056669;28;20531;-66
2023/08/19 11:33:54;;;;;;;7.28;4.55;;;;;;;;;;5058457;28;20493;-66
2023/08/19 11:36:23;;;;;;;8.10;5.00;;;;;;;;;;5055857;28;20035;-66
2023/08/19 11:38:49;;;;;;;15.35;4.90;;;;;;;;;;5036473;28;20017;-67
2023/08/19 11:41:14;;;;;;;7.32;4.57;;;;;;;;;;5049380;28;20376;-65
2023/08/19 11:43:44;;;;;;;7.65;4.72;;;;;;;;;;5076360;28;20070;-67
2023/08/19 11:46:11;;;;;;;7.55;4.95;;;;;;;;;;5076081;28;20476;-67
2023/08/19 11:48:36;;;;;;;10.55;4.82;;;;;;;;;;5066394;28;20021;-67
2023/08/19 11:51:01;;;;;;;7.35;4.53;;;;;;;;;;5055914;28;20020;-67
2023/08/19 11:53:28;;;;;;;7.65;4.50;;;;;;;;;;5062736;28;20028;-66
2023/08/19 11:55:59;;;;;;;10.82;5.00;;;;;;;;;;5076279;28;20427;-69
2023/08/19 11:58:35;;;;;;;7.80;4.35;;;;;;;;;;5068205;28;20017;-69
2023/08/19 12:01:01;;;;;;;8.18;4.57;;;;;;;;;;5064527;28;20357;-69
2023/08/19 12:03:26;;;;;;;9.02;4.55;;;;;;;;;;5063477;28;20059;-69
2023/08/19 12:05:52;;;;;;;8.93;4.68;;;;;;;;;;5042413;28;20520;-69
2023/08/19 12:08:30;;;;;;;7.95;4.47;;;;;;;;;;5041569;28;20016;-69
2023/08/19 12:10:55;;;;;;;9.40;4.68;;;;;;;;;;5039746;28;20071;-68
2023/08/19 12:13:21;;;;;;;7.45;4.45;;;;;;;;;;5042889;28;20013;-69
2023/08/19 12:15:46;;;;;;;8.63;4.75;;;;;;;;;;5055608;28;20048;-70
2023/08/19 12:18:15;;;;;;;9.23;4.75;;;;;;;;;;5038863;28;20017;-69
2023/08/19 12:20:40;;;;;;;8.95;4.60;;;;;;;;;;5055752;28;20055;-69
2023/08/19 12:23:05;;;;;;;7.05;4.25;;;;;;;;;;5041513;28;20045;-70
2023/08/19 12:25:30;;;;;;;8.57;4.10;;;;;;;;;;5035670;28;20045;-68
2023/08/19 12:27:58;;;;;;;8.48;3.90;;;;;;;;;;5017713;28;20382;-69
2023/08/19 12:30:23;;;;;;;7.80;4.00;;;;;;;;;;5046712;28;20025;-68
2023/08/19 12:32:48;;;;;;;6.78;3.40;;;;;;;;;;5054213;28;20377;-68
2023/08/19 12:35:13;;;;;;;10.23;3.33;;;;;;;;;;5050937;28;20394;-69
2023/08/19 12:37:39;;;;;;;6.28;2.75;;;;;;;;;;5016912;28;20401;-69
2023/08/19 12:40:05;;;;;;;7.82;2.95;;;;;;;;;;5041741;28;20025;-69
2023/08/19 12:42:30;;;;;;;14.82;3.28;;;;;;;;;;5055398;28;20028;-69
2023/08/19 12:44:55;;;;;;;8.13;2.75;;;;;;;;;;5055292;28;20389;-69
2023/08/19 12:47:21;;;;;;;5.35;2.83;;;;;;;;;;5055242;28;20025;-69
2023/08/19 12:49:46;;;;;;;7.63;3.40;;;;;;;;;;5055003;28;20013;-69
2023/08/19 12:52:11;;;;;;;6.28;3.22;;;;;;;;;;5055181;28;20044;-69
2023/08/19 12:54:36;;;;;;;11.13;3.25;;;;;;;;;;5055121;28;20084;-69
2023/08/19 12:57:02;;;;;;;10.30;3.30;;;;;;;;;;5041416;28;20021;-68
2023/08/19 12:59:27;;;;;;;6.32;3.17;;;;;;;;;;5031773;28;20017;-70
2023/08/19 13:01:53;;;;;;;6.28;3.40;;;;;;;;;;5034768;28;20093;-70
2023/08/19 13:04:18;;;;;;;9.38;3.33;;;;;;;;;;5052938;28;20101;-71
2023/08/19 13:06:46;;;;;;;5.05;2.95;;;;;;;;;;5045308;28;20028;-70
2023/08/19 13:09:11;;;;;;;5.93;3.10;;;;;;;;;;5034616;28;20022;-70
2023/08/19 13:11:37;;;;;;;7.00;3.25;;;;;;;;;;5034566;28;20060;-70
2023/08/19 13:14:02;;;;;;;5.55;3.30;;;;;;;;;;5060620;28;20024;-70
2023/08/19 13:16:27;;;;;;;8.68;3.20;;;;;;;;;;5069842;28;20020;-70
2023/08/19 13:18:52;;;;;;;10.52;3.25;;;;;;;;;;5016747;28;20021;-70
2023/08/19 13:21:18;;;;;;;7.78;3.25;;;;;;;;;;5034732;28;20026;-70
2023/08/19 13:23:43;;;;;;;10.45;3.47;;;;;;;;;;5034705;28;20480;-70
2023/08/19 13:26:08;;;;;;;5.93;3.10;;;;;;;;;;5034520;28;20430;-70
2023/08/19 13:28:33;;;;;;;6.80;3.50;;;;;;;;;;5034574;28;20041;-68
2023/08/19 13:30:59;;;;;;;8.75;3.80;;;;;;;;;;5047568;28;20024;-70
2023/08/19 13:33:24;;;;;;;5.88;3.42;;;;;;;;;;5053892;28;20032;-70
2023/08/19 13:35:49;;;;;;;7.85;3.28;;;;;;;;;;5052093;28;20025;-70
2023/08/19 13:38:14;;;;;;;6.93;3.50;;;;;;;;;;5054359;28;20021;-70
2023/08/19 13:40:40;;;;;;;8.32;3.78;;;;;;;;;;5056974;28;20376;-69
2023/08/19 13:43:05;;;;;;;9.57;3.45;;;;;;;;;;5060586;28;20358;-70
2023/08/19 13:45:30;;;;;;;10.35;3.85;;;;;;;;;;5053995;28;20355;-70
2023/08/19 13:47:55;;;;;;;9.68;3.38;;;;;;;;;;5053442;28;20393;-70
2023/08/19 13:50:21;;;;;;;7.43;3.20;;;;;;;;;;5053857;28;20021;-69
2023/08/19 13:52:47;;;;;;;10.18;3.30;;;;;;;;;;5054024;28;20021;-69
2023/08/19 13:55:12;;;;;;;8.13;3.50;;;;;;;;;;5071125;28;20404;-68
2023/08/19 13:57:38;;;;;;;8.07;3.55;;;;;;;;;;5057888;28;20043;-70
2023/08/19 14:00:10;;;;;;;9.18;3.42;;;;;;;;;;5071858;28;20104;-69
2023/08/19 14:02:44;;;;;;;12.70;3.55;;;;;;;;;;5048971;28;20489;-71
2023/08/19 14:05:15;;;;;;;8.75;3.42;;;;;;;;;;5062994;28;20540;-71
2023/08/19 14:07:41;;;;;;;9.73;3.53;;;;;;;;;;5073329;28;20021;-70
2023/08/19 14:10:06;;;;;;;6.30;3.97;;;;;;;;;;5073399;28;20032;-68
2023/08/19 14:12:31;;;;;;;9.25;3.72;;;;;;;;;;5073469;28;20017;-69
2023/08/19 14:14:57;;;;;;;10.02;4.38;;;;;;;;;;5066400;28;20047;-69
2023/08/19 14:17:22;;;;;;;9.15;4.03;;;;;;;;;;5052842;28;20489;-69
2023/08/19 14:19:47;;;;;;;8.48;4.20;;;;;;;;;;5053357;28;20044;-70
2023/08/19 14:22:12;;;;;;;7.18;4.53;;;;;;;;;;5053557;28;20029;-68